Terminal Aerodrome Forecast
Issued by NWS Lake Charles, LA

Home | Current Version | Previous Version | Text Only | Print | Product List | Glossary On
Versions: 1 2 3 4 5 6 7 8 9 10 11 12 13 14 15 16 17
000
FTUS44 KLCH 301100 RRA
TAFLCH
TAF
KLCH 301143Z 3012/3112 12007KT P6SM -SHRA FEW006 BKN015 OVC030
      TEMPO 3012/3016 3SM -TSRA BR BKN025CB BKN040
     FM301800 18008KT P6SM VCTS BKN025CB
      TEMPO 3018/3022 4SM -TSRA
     FM310300 17005KT P6SM BKN250=

USA.gov is the U.S. government's official web portal to all federal, state and local government web resources and services.